CYP470 OJAI-LCLK
Flight info
| Callsign | CYP470 |
|---|---|
| Flight time | 0h 48m |
| Altitude | 34000 |
| Route | MUVIN L53 TAPUZ W13 VELOX N131 EMEDA |
| Aircraft | A320/M-SDE3FGHIRWY/LB1 |
Departure
| Time | 2026-05-09 07:10 |
|---|---|
| Airport | Queen Alia International Airport (OJAI) |
Arrival
| Time | 2026-05-09 07:59 |
|---|---|
| Airport | Larnaca International Airport (LCLK) |
| Time | Latitude | Longitude | Altitude | Speed | Heading |
|---|---|---|---|---|---|
| 2026-05-09 06:57 | 31.72420 | 35.98768 | 2418 ft | 0 kts | 171° |
| 2026-05-09 07:00 | 31.72430 | 35.98766 | 2418 ft | 3 kts | 171° |
| 2026-05-09 07:00 | 31.72451 | 35.98763 | 2418 ft | 3 kts | 171° |
| 2026-05-09 07:01 | 31.72472 | 35.98758 | 2418 ft | 3 kts | 151° |
| 2026-05-09 07:01 | 31.72488 | 35.98741 | 2418 ft | 3 kts | 109° |
| 2026-05-09 07:01 | 31.72491 | 35.98716 | 2417 ft | 3 kts | 83° |
| 2026-05-09 07:01 | 31.72491 | 35.98712 | 2418 ft | 2 kts | 81° |
| 2026-05-09 07:02 | 31.72495 | 35.98736 | 2417 ft | 3 kts | 81° |
| 2026-05-09 07:02 | 31.72497 | 35.98756 | 2418 ft | 0 kts | 81° |
| 2026-05-09 07:03 | 31.72499 | 35.98765 | 2418 ft | 4 kts | 79° |
| 2026-05-09 07:04 | 31.72504 | 35.98797 | 2418 ft | 4 kts | 80° |
| 2026-05-09 07:04 | 31.72510 | 35.98840 | 2417 ft | 6 kts | 80° |
| 2026-05-09 07:04 | 31.72520 | 35.98888 | 2418 ft | 7 kts | 67° |
| 2026-05-09 07:04 | 31.72542 | 35.98914 | 2418 ft | 9 kts | 27° |
| 2026-05-09 07:05 | 31.72596 | 35.98917 | 2417 ft | 7 kts | 351° |
| 2026-05-09 07:05 | 31.72649 | 35.98894 | 2417 ft | 8 kts | 320° |
| 2026-05-09 07:05 | 31.72663 | 35.98834 | 2416 ft | 11 kts | 267° |
| 2026-05-09 07:05 | 31.72645 | 35.98704 | 2418 ft | 21 kts | 261° |
| 2026-05-09 07:06 | 31.72617 | 35.98497 | 2418 ft | 30 kts | 260° |
| 2026-05-09 07:06 | 31.72583 | 35.98260 | 2418 ft | 28 kts | 261° |
| 2026-05-09 07:06 | 31.72549 | 35.98031 | 2417 ft | 29 kts | 260° |
| 2026-05-09 07:06 | 31.72518 | 35.97815 | 2418 ft | 21 kts | 260° |
| 2026-05-09 07:07 | 31.72491 | 35.97634 | 2416 ft | 23 kts | 260° |
| 2026-05-09 07:07 | 31.72464 | 35.97439 | 2418 ft | 25 kts | 261° |
| 2026-05-09 07:07 | 31.72438 | 35.97262 | 2418 ft | 16 kts | 260° |
| 2026-05-09 07:07 | 31.72420 | 35.97136 | 2417 ft | 11 kts | 260° |
| 2026-05-09 07:08 | 31.72416 | 35.97059 | 2418 ft | 9 kts | 283° |
| 2026-05-09 07:08 | 31.72464 | 35.97022 | 2418 ft | 9 kts | 340° |
| 2026-05-09 07:08 | 31.72520 | 35.97007 | 2418 ft | 7 kts | 348° |
| 2026-05-09 07:08 | 31.72571 | 35.96997 | 2419 ft | 7 kts | 352° |
| 2026-05-09 07:09 | 31.72616 | 35.96991 | 2420 ft | 7 kts | 354° |
| 2026-05-09 07:09 | 31.72662 | 35.96999 | 2421 ft | 10 kts | 27° |
| 2026-05-09 07:09 | 31.72692 | 35.97071 | 2421 ft | 13 kts | 79° |
| 2026-05-09 07:09 | 31.72747 | 35.97442 | 2419 ft | 85 kts | 80° |
| 2026-05-09 07:10 | 31.72884 | 35.98386 | 2418 ft | 147 kts | 80° |
| 2026-05-09 07:10 | 31.73084 | 35.99719 | 2721 ft | 174 kts | 79° |
| 2026-05-09 07:10 | 31.73289 | 36.01127 | 3480 ft | 175 kts | 79° |
| 2026-05-09 07:10 | 31.73493 | 36.02537 | 4286 ft | 173 kts | 79° |
| 2026-05-09 07:11 | 31.73691 | 36.03924 | 4925 ft | 177 kts | 79° |
| 2026-05-09 07:11 | 31.73907 | 36.05424 | 5279 ft | 196 kts | 80° |
| 2026-05-09 07:11 | 31.74322 | 36.07044 | 5529 ft | 223 kts | 55° |
| 2026-05-09 07:11 | 31.75616 | 36.08150 | 6098 ft | 242 kts | 25° |
| 2026-05-09 07:12 | 31.77300 | 36.08754 | 6781 ft | 257 kts | 15° |
| 2026-05-09 07:12 | 31.79078 | 36.09188 | 7549 ft | 265 kts | 13° |
| 2026-05-09 07:12 | 31.80904 | 36.09625 | 8292 ft | 272 kts | 13° |
| 2026-05-09 07:12 | 31.82779 | 36.10116 | 9119 ft | 277 kts | 14° |
| 2026-05-09 07:13 | 31.84662 | 36.10670 | 9931 ft | 282 kts | 15° |
| 2026-05-09 07:13 | 31.86596 | 36.10905 | 10773 ft | 281 kts | 348° |
| 2026-05-09 07:13 | 31.88336 | 36.09996 | 11674 ft | 275 kts | 318° |
| 2026-05-09 07:13 | 31.89486 | 36.08193 | 12040 ft | 290 kts | 288° |
| 2026-05-09 07:14 | 31.89859 | 36.05783 | 12629 ft | 301 kts | 278° |
| 2026-05-09 07:14 | 31.90228 | 36.03332 | 13353 ft | 307 kts | 280° |
| 2026-05-09 07:14 | 31.90650 | 36.00892 | 14155 ft | 309 kts | 282° |
| 2026-05-09 07:14 | 31.91102 | 35.98408 | 14950 ft | 312 kts | 282° |
| 2026-05-09 07:15 | 31.91489 | 35.95884 | 15721 ft | 315 kts | 275° |
| 2026-05-09 07:15 | 31.91453 | 35.93262 | 16162 ft | 331 kts | 265° |
| 2026-05-09 07:15 | 31.91200 | 35.90479 | 16301 ft | 353 kts | 264° |
| 2026-05-09 07:15 | 31.90903 | 35.87546 | 16601 ft | 368 kts | 264° |
| 2026-05-09 07:16 | 31.90586 | 35.84537 | 17189 ft | 373 kts | 264° |
| 2026-05-09 07:16 | 31.90263 | 35.81486 | 17842 ft | 377 kts | 264° |
| 2026-05-09 07:16 | 31.89939 | 35.78418 | 18497 ft | 380 kts | 264° |
| 2026-05-09 07:16 | 31.89610 | 35.75321 | 19137 ft | 383 kts | 263° |
| 2026-05-09 07:17 | 31.88992 | 35.72257 | 19772 ft | 388 kts | 253° |
| 2026-05-09 07:17 | 31.87882 | 35.69299 | 20407 ft | 392 kts | 245° |
| 2026-05-09 07:17 | 31.86669 | 35.66455 | 21001 ft | 395 kts | 245° |
| 2026-05-09 07:17 | 31.85422 | 35.63524 | 21587 ft | 397 kts | 245° |
| 2026-05-09 07:18 | 31.84206 | 35.60642 | 22134 ft | 399 kts | 246° |
| 2026-05-09 07:18 | 31.83256 | 35.57580 | 22672 ft | 400 kts | 256° |
| 2026-05-09 07:18 | 31.82813 | 35.54351 | 23171 ft | 401 kts | 266° |
| 2026-05-09 07:18 | 31.82883 | 35.51069 | 23652 ft | 404 kts | 276° |
| 2026-05-09 07:19 | 31.83454 | 35.47823 | 24117 ft | 408 kts | 285° |
| 2026-05-09 07:19 | 31.84397 | 35.44620 | 24563 ft | 410 kts | 288° |
| 2026-05-09 07:19 | 31.85350 | 35.41455 | 25009 ft | 412 kts | 288° |
| 2026-05-09 07:19 | 31.86297 | 35.38305 | 25416 ft | 414 kts | 288° |
| 2026-05-09 07:20 | 31.87259 | 35.35103 | 25833 ft | 416 kts | 288° |
| 2026-05-09 07:20 | 31.88221 | 35.31891 | 26225 ft | 417 kts | 288° |
| 2026-05-09 07:20 | 31.89185 | 35.28663 | 26612 ft | 419 kts | 288° |
| 2026-05-09 07:20 | 31.90149 | 35.25421 | 26989 ft | 420 kts | 288° |
| 2026-05-09 07:21 | 31.91115 | 35.22162 | 27353 ft | 422 kts | 288° |
| 2026-05-09 07:21 | 31.92079 | 35.18893 | 27701 ft | 423 kts | 288° |
| 2026-05-09 07:21 | 31.93043 | 35.15614 | 28043 ft | 424 kts | 288° |
| 2026-05-09 07:21 | 31.94008 | 35.12330 | 28381 ft | 425 kts | 288° |
| 2026-05-09 07:22 | 31.94981 | 35.09030 | 28699 ft | 426 kts | 288° |
| 2026-05-09 07:22 | 31.95957 | 35.05725 | 28975 ft | 428 kts | 288° |
| 2026-05-09 07:22 | 31.96946 | 35.02372 | 29261 ft | 428 kts | 288° |
| 2026-05-09 07:22 | 31.97911 | 34.99098 | 29515 ft | 429 kts | 288° |
| 2026-05-09 07:23 | 31.98886 | 34.95783 | 29778 ft | 429 kts | 288° |
| 2026-05-09 07:23 | 31.99862 | 34.92469 | 30122 ft | 427 kts | 288° |
| 2026-05-09 07:23 | 32.00822 | 34.89119 | 30472 ft | 424 kts | 285° |
| 2026-05-09 07:23 | 32.01402 | 34.85732 | 30814 ft | 422 kts | 277° |
| 2026-05-09 07:24 | 32.01611 | 34.82335 | 31121 ft | 421 kts | 274° |
| 2026-05-09 07:24 | 32.01796 | 34.78902 | 31451 ft | 419 kts | 274° |
| 2026-05-09 07:24 | 32.01981 | 34.75487 | 31787 ft | 417 kts | 274° |
| 2026-05-09 07:24 | 32.02167 | 34.72086 | 32119 ft | 415 kts | 274° |
| 2026-05-09 07:25 | 32.02357 | 34.68705 | 32446 ft | 413 kts | 275° |
| 2026-05-09 07:25 | 32.02546 | 34.65335 | 32771 ft | 411 kts | 275° |
| 2026-05-09 07:25 | 32.02737 | 34.61981 | 33080 ft | 409 kts | 276° |
| 2026-05-09 07:25 | 32.03342 | 34.58719 | 33370 ft | 408 kts | 290° |
| 2026-05-09 07:26 | 32.04698 | 34.55789 | 33670 ft | 411 kts | 304° |
| 2026-05-09 07:26 | 32.06734 | 34.53406 | 33958 ft | 418 kts | 319° |
| 2026-05-09 07:26 | 32.09322 | 34.51772 | 34036 ft | 429 kts | 335° |
| 2026-05-09 07:26 | 32.12290 | 34.51058 | 34064 ft | 440 kts | 347° |
| 2026-05-09 07:27 | 32.18377 | 34.50253 | 34064 ft | 440 kts | 347° |
| 2026-05-09 07:27 | 32.24459 | 34.49443 | 34064 ft | 439 kts | 347° |
| 2026-05-09 07:28 | 32.30398 | 34.48106 | 34064 ft | 428 kts | 334° |
| 2026-05-09 07:28 | 32.35508 | 34.44796 | 34061 ft | 414 kts | 316° |
| 2026-05-09 07:29 | 32.39641 | 34.40180 | 34061 ft | 411 kts | 311° |
| 2026-05-09 07:29 | 32.43741 | 34.35397 | 34061 ft | 411 kts | 311° |
| 2026-05-09 07:30 | 32.47791 | 34.30671 | 34059 ft | 411 kts | 311° |
| 2026-05-09 07:30 | 32.51962 | 34.26019 | 34059 ft | 416 kts | 319° |
| 2026-05-09 07:31 | 32.57212 | 34.22948 | 34058 ft | 431 kts | 339° |
| 2026-05-09 07:31 | 32.63235 | 34.21972 | 34055 ft | 440 kts | 348° |
| 2026-05-09 07:32 | 32.69370 | 34.21281 | 34052 ft | 440 kts | 348° |
| 2026-05-09 07:32 | 32.75430 | 34.20605 | 34051 ft | 440 kts | 348° |
| 2026-05-09 07:33 | 32.84573 | 34.19567 | 34054 ft | 440 kts | 348° |
| 2026-05-09 07:34 | 32.90671 | 34.18861 | 34057 ft | 440 kts | 348° |
| 2026-05-09 07:34 | 32.96768 | 34.18157 | 34058 ft | 440 kts | 348° |
| 2026-05-09 07:35 | 33.02865 | 34.17461 | 34059 ft | 440 kts | 348° |
| 2026-05-09 07:35 | 33.08960 | 34.16768 | 34059 ft | 440 kts | 349° |
| 2026-05-09 07:36 | 33.15059 | 34.16067 | 34058 ft | 440 kts | 348° |
| 2026-05-09 07:36 | 33.21158 | 34.15360 | 34061 ft | 440 kts | 349° |
| 2026-05-09 07:37 | 33.27262 | 34.14650 | 34062 ft | 440 kts | 349° |
| 2026-05-09 07:37 | 33.33364 | 34.13942 | 34065 ft | 441 kts | 349° |
| 2026-05-09 07:38 | 33.39466 | 34.13234 | 34068 ft | 441 kts | 349° |
| 2026-05-09 07:38 | 33.45575 | 34.12535 | 34073 ft | 441 kts | 349° |
| 2026-05-09 07:39 | 33.51686 | 34.11836 | 34071 ft | 441 kts | 349° |
| 2026-05-09 07:39 | 33.57800 | 34.11127 | 34069 ft | 441 kts | 349° |
| 2026-05-09 07:40 | 33.63899 | 34.10407 | 34065 ft | 441 kts | 349° |
| 2026-05-09 07:40 | 33.70007 | 34.09692 | 33914 ft | 441 kts | 349° |
| 2026-05-09 07:40 | 33.73064 | 34.09341 | 33033 ft | 443 kts | 349° |
| 2026-05-09 07:41 | 33.76153 | 34.08982 | 31972 ft | 447 kts | 350° |
| 2026-05-09 07:41 | 33.79257 | 34.08615 | 30910 ft | 450 kts | 349° |
| 2026-05-09 07:41 | 33.82333 | 34.07961 | 29795 ft | 448 kts | 342° |
| 2026-05-09 07:41 | 33.85307 | 34.06831 | 28635 ft | 449 kts | 337° |
| 2026-05-09 07:42 | 33.88262 | 34.05591 | 27434 ft | 452 kts | 337° |
| 2026-05-09 07:42 | 33.91232 | 34.04339 | 26228 ft | 454 kts | 337° |
| 2026-05-09 07:42 | 33.94176 | 34.03102 | 25281 ft | 451 kts | 337° |
| 2026-05-09 07:42 | 33.97114 | 34.01875 | 24481 ft | 444 kts | 338° |
| 2026-05-09 07:43 | 34.00054 | 34.00649 | 23674 ft | 439 kts | 338° |
| 2026-05-09 07:43 | 34.02885 | 33.99467 | 22919 ft | 434 kts | 338° |
| 2026-05-09 07:43 | 34.04800 | 33.98664 | 22420 ft | 430 kts | 338° |
| 2026-05-09 07:43 | 34.07613 | 33.97480 | 21694 ft | 425 kts | 338° |
| 2026-05-09 07:44 | 34.10393 | 33.96310 | 21004 ft | 421 kts | 338° |
| 2026-05-09 07:44 | 34.13141 | 33.95153 | 20332 ft | 416 kts | 338° |
| 2026-05-09 07:44 | 34.16730 | 33.93638 | 19481 ft | 410 kts | 338° |
| 2026-05-09 07:44 | 34.18541 | 33.92874 | 19052 ft | 407 kts | 338° |
| 2026-05-09 07:45 | 34.21196 | 33.91755 | 18468 ft | 402 kts | 338° |
| 2026-05-09 07:45 | 34.23825 | 33.90647 | 17890 ft | 397 kts | 338° |
| 2026-05-09 07:45 | 34.26420 | 33.89552 | 17343 ft | 393 kts | 338° |
| 2026-05-09 07:45 | 34.28950 | 33.88483 | 16829 ft | 388 kts | 338° |
| 2026-05-09 07:46 | 34.31482 | 33.87413 | 16319 ft | 382 kts | 338° |
| 2026-05-09 07:46 | 34.33975 | 33.86359 | 15803 ft | 378 kts | 339° |
| 2026-05-09 07:46 | 34.36443 | 33.85314 | 15298 ft | 373 kts | 339° |
| 2026-05-09 07:46 | 34.38880 | 33.84280 | 14761 ft | 369 kts | 339° |
| 2026-05-09 07:47 | 34.41296 | 33.83256 | 13942 ft | 365 kts | 339° |
| 2026-05-09 07:47 | 34.43668 | 33.82250 | 12972 ft | 358 kts | 339° |
| 2026-05-09 07:47 | 34.46006 | 33.81257 | 12023 ft | 354 kts | 340° |
| 2026-05-09 07:47 | 34.48298 | 33.80284 | 11420 ft | 343 kts | 340° |
| 2026-05-09 07:48 | 34.50488 | 33.79328 | 11291 ft | 328 kts | 339° |
| 2026-05-09 07:48 | 34.52567 | 33.78387 | 11117 ft | 309 kts | 338° |
| 2026-05-09 07:48 | 34.54538 | 33.77482 | 10569 ft | 298 kts | 338° |
| 2026-05-09 07:48 | 34.56455 | 33.76558 | 10267 ft | 294 kts | 332° |
| 2026-05-09 07:49 | 34.58079 | 33.75098 | 10028 ft | 291 kts | 311° |
| 2026-05-09 07:49 | 34.59159 | 33.73050 | 9890 ft | 289 kts | 290° |
| 2026-05-09 07:49 | 34.59581 | 33.70680 | 9768 ft | 289 kts | 270° |
| 2026-05-09 07:49 | 34.59359 | 33.68265 | 9644 ft | 288 kts | 260° |
| 2026-05-09 07:50 | 34.59075 | 33.65854 | 9334 ft | 288 kts | 263° |
| 2026-05-09 07:50 | 34.58932 | 33.63427 | 8876 ft | 288 kts | 267° |
| 2026-05-09 07:50 | 34.58951 | 33.61004 | 8439 ft | 287 kts | 272° |
| 2026-05-09 07:50 | 34.59119 | 33.58593 | 8015 ft | 286 kts | 276° |
| 2026-05-09 07:51 | 34.59421 | 33.56220 | 7605 ft | 284 kts | 280° |
| 2026-05-09 07:51 | 34.59850 | 33.53891 | 7195 ft | 282 kts | 284° |
| 2026-05-09 07:51 | 34.60406 | 33.51621 | 6770 ft | 280 kts | 288° |
| 2026-05-09 07:51 | 34.61075 | 33.49452 | 6597 ft | 265 kts | 292° |
| 2026-05-09 07:52 | 34.61802 | 33.47487 | 6464 ft | 248 kts | 296° |
| 2026-05-09 07:52 | 34.62585 | 33.45676 | 6354 ft | 237 kts | 300° |
| 2026-05-09 07:52 | 34.63420 | 33.43981 | 6098 ft | 232 kts | 303° |
| 2026-05-09 07:52 | 34.64323 | 33.42365 | 5780 ft | 231 kts | 306° |
| 2026-05-09 07:53 | 34.65309 | 33.40830 | 5465 ft | 229 kts | 314° |
| 2026-05-09 07:53 | 34.66593 | 33.39747 | 5136 ft | 225 kts | 340° |
| 2026-05-09 07:53 | 34.68124 | 33.39442 | 4839 ft | 223 kts | 4° |
| 2026-05-09 07:53 | 34.69603 | 33.39947 | 4518 ft | 223 kts | 29° |
| 2026-05-09 07:54 | 34.70788 | 33.41146 | 4224 ft | 221 kts | 46° |
| 2026-05-09 07:54 | 34.71854 | 33.42534 | 3702 ft | 230 kts | 46° |
| 2026-05-09 07:54 | 34.72970 | 33.43977 | 3104 ft | 238 kts | 46° |
| 2026-05-09 07:54 | 34.74109 | 33.45445 | 2719 ft | 236 kts | 46° |
| 2026-05-09 07:55 | 34.75219 | 33.46885 | 2462 ft | 230 kts | 47° |
| 2026-05-09 07:55 | 34.76286 | 33.48273 | 2332 ft | 219 kts | 47° |
| 2026-05-09 07:55 | 34.77301 | 33.49589 | 2220 ft | 208 kts | 47° |
| 2026-05-09 07:55 | 34.78262 | 33.50829 | 2149 ft | 194 kts | 47° |
| 2026-05-09 07:56 | 34.79150 | 33.51976 | 2047 ft | 179 kts | 47° |
| 2026-05-09 07:56 | 34.79971 | 33.53041 | 1884 ft | 168 kts | 48° |
| 2026-05-09 07:56 | 34.80744 | 33.54055 | 1624 ft | 160 kts | 49° |
| 2026-05-09 07:56 | 34.81468 | 33.55038 | 1359 ft | 150 kts | 51° |
| 2026-05-09 07:57 | 34.82153 | 33.55932 | 1194 ft | 142 kts | 46° |
| 2026-05-09 07:57 | 34.82813 | 33.56764 | 1030 ft | 139 kts | 47° |
| 2026-05-09 07:57 | 34.83474 | 33.57596 | 897 ft | 138 kts | 48° |
| 2026-05-09 07:57 | 34.84140 | 33.58433 | 665 ft | 136 kts | 47° |
| 2026-05-09 07:58 | 34.84815 | 33.59254 | 532 ft | 138 kts | 46° |
| 2026-05-09 07:58 | 34.85479 | 33.60083 | 329 ft | 136 kts | 46° |
| 2026-05-09 07:58 | 34.86152 | 33.60890 | 145 ft | 136 kts | 46° |
| 2026-05-09 07:58 | 34.86806 | 33.61694 | 18 ft | 127 kts | 45° |
| 2026-05-09 07:59 | 34.87254 | 33.62242 | 18 ft | 33 kts | 45° |
| 2026-05-09 07:59 | 34.87319 | 33.62308 | 19 ft | 11 kts | 19° |
| 2026-05-09 07:59 | 34.87384 | 33.62282 | 19 ft | 6 kts | 314° |
| 2026-05-09 07:59 | 34.87414 | 33.62244 | 20 ft | 6 kts | 314° |
| 2026-05-09 08:00 | 34.87443 | 33.62210 | 22 ft | 6 kts | 316° |
| 2026-05-09 08:00 | 34.87462 | 33.62152 | 20 ft | 9 kts | 257° |
| 2026-05-09 08:00 | 34.87422 | 33.62091 | 21 ft | 12 kts | 226° |
| 2026-05-09 08:00 | 34.87366 | 33.62022 | 20 ft | 10 kts | 225° |
| 2026-05-09 08:01 | 34.87323 | 33.61968 | 22 ft | 9 kts | 225° |
| 2026-05-09 08:01 | 34.87272 | 33.61907 | 23 ft | 10 kts | 225° |
| 2026-05-09 08:01 | 34.87216 | 33.61839 | 22 ft | 12 kts | 224° |
| 2026-05-09 08:01 | 34.87159 | 33.61766 | 21 ft | 11 kts | 226° |
| 2026-05-09 08:02 | 34.87108 | 33.61705 | 23 ft | 10 kts | 224° |
| 2026-05-09 08:02 | 34.87033 | 33.61613 | 22 ft | 19 kts | 226° |
| 2026-05-09 08:02 | 34.86931 | 33.61482 | 20 ft | 23 kts | 224° |
| 2026-05-09 08:02 | 34.86818 | 33.61348 | 19 ft | 16 kts | 225° |
| 2026-05-09 08:03 | 34.86730 | 33.61243 | 19 ft | 18 kts | 225° |
| 2026-05-09 08:03 | 34.86686 | 33.61189 | 21 ft | 6 kts | 226° |
| 2026-05-09 08:03 | 34.86658 | 33.61154 | 24 ft | 7 kts | 225° |
| 2026-05-09 08:03 | 34.86641 | 33.61100 | 21 ft | 10 kts | 278° |
| 2026-05-09 08:04 | 34.86657 | 33.61029 | 21 ft | 8 kts | 262° |
| 2026-05-09 08:04 | 34.86644 | 33.60990 | 24 ft | 4 kts | 264° |
| 2026-05-09 08:04 | 34.86661 | 33.60945 | 23 ft | 8 kts | 309° |
| 2026-05-09 08:04 | 34.86699 | 33.60896 | 21 ft | 9 kts | 315° |
| 2026-05-09 08:05 | 34.86744 | 33.60841 | 21 ft | 9 kts | 315° |
| 2026-05-09 08:05 | 34.86784 | 33.60793 | 20 ft | 6 kts | 315° |
| 2026-05-09 08:05 | 34.86796 | 33.60779 | 21 ft | 2 kts | 315° |
| 2026-05-09 08:05 | 34.86795 | 33.60759 | 20 ft | 4 kts | 255° |
| 2026-05-09 08:06 | 34.86768 | 33.60718 | 20 ft | 8 kts | 225° |
| 2026-05-09 08:06 | 34.86754 | 33.60702 | 22 ft | 0 kts | 224° |